Time;durP1;ratioP1;P1;durP2;ratioP2;P2;SDS_P1;SDS_P2;PMS_P1;PMS_P2;Temp;Humidity;BMP_temperature;BMP_pressure;BME280_temperature;BME280_humidity;BME280_pressure;Samples;Min_cycle;Max_cycle;Signal;HPM_P1;HPM_P2
2022/04/07 00:01:36;;;;;;;20.80;3.65;;;;;;;10.44;77.86;99104.31;5046002;28;20087;-62
2022/04/07 00:04:01;;;;;;;19.90;3.55;;;;;;;10.49;77.10;99091.75;5046684;28;20041;-64
2022/04/07 00:06:27;;;;;;;24.17;3.28;;;;;;;10.61;76.41;99147.25;5045917;28;20029;-64
2022/04/07 00:08:52;;;;;;;21.55;3.55;;;;;;;10.62;76.14;99101.53;5046258;28;20025;-64
2022/04/07 00:11:17;;;;;;;14.30;3.10;;;;;;;10.59;76.64;99107.84;5045370;28;20025;-64
2022/04/07 00:13:42;;;;;;;20.73;3.75;;;;;;;10.76;75.89;99092.78;5034443;28;20034;-66
2022/04/07 00:16:08;;;;;;;12.02;2.28;;;;;;;10.86;75.53;99090.38;5025870;28;20025;-65
2022/04/07 00:18:33;;;;;;;14.00;3.15;;;;;;;10.81;75.35;99098.56;5023974;28;20056;-64
2022/04/07 00:21:00;;;;;;;18.40;3.10;;;;;;;10.86;75.30;99085.97;5026168;28;20033;-65
2022/04/07 00:23:25;;;;;;;16.15;2.85;;;;;;;10.80;75.57;99094.25;5025944;28;20029;-65
2022/04/07 00:25:51;;;;;;;13.00;3.58;;;;;;;10.87;75.52;99077.13;5024202;28;20075;-66
2022/04/07 00:28:16;;;;;;;23.02;3.05;;;;;;;10.75;75.42;99072.63;5025840;28;20454;-66
2022/04/07 00:30:43;;;;;;;12.07;2.65;;;;;;;10.86;75.16;99069.31;5043543;28;20037;-65
2022/04/07 00:33:08;;;;;;;23.35;3.50;;;;;;;10.89;75.40;99071.75;5045372;28;20021;-66
2022/04/07 00:35:34;;;;;;;20.80;3.25;;;;;;;10.90;74.90;99072.59;5045864;28;20159;-67
2022/04/07 00:38:00;;;;;;;15.20;2.70;;;;;;;10.89;75.00;99068.28;5045666;28;20055;-67
2022/04/07 00:40:25;;;;;;;15.77;2.92;;;;;;;10.98;74.78;99054.50;5044999;28;20167;-67
2022/04/07 00:42:52;;;;;;;16.40;2.90;;;;;;;10.94;74.81;99055.66;5045983;28;20092;-65
2022/04/07 00:45:19;;;;;;;16.80;3.10;;;;;;;10.87;74.46;99034.94;5045414;28;20468;-66
2022/04/07 00:47:45;;;;;;;16.33;3.92;;;;;;;10.81;74.79;99035.34;5034307;28;20030;-67
2022/04/07 00:50:11;;;;;;;15.52;3.08;;;;;;;10.84;74.03;99032.50;5025072;28;20384;-67
2022/04/07 00:52:43;;;;;;;24.80;4.07;;;;;;;10.90;73.91;99035.72;5023629;28;20756;-69
2022/04/07 00:55:10;;;;;;;19.55;3.75;;;;;;;10.93;73.66;99019.72;5024980;28;20110;-66
2022/04/07 00:57:36;;;;;;;19.33;3.20;;;;;;;11.01;73.74;99017.41;5026106;28;20025;-69
2022/04/07 01:00:03;;;;;;;13.20;3.30;;;;;;;10.89;74.06;99003.25;5025613;28;20159;-66
2022/04/07 01:02:29;;;;;;;24.05;3.60;;;;;;;10.82;74.19;99002.81;5035136;28;20040;-66
2022/04/07 01:04:55;;;;;;;18.33;3.55;;;;;;;10.91;74.55;98997.88;5045096;28;20312;-69
2022/04/07 01:07:20;;;;;;;18.80;3.28;;;;;;;10.97;74.06;99005.38;5043962;28;20507;-68
2022/04/07 01:09:45;;;;;;;19.05;3.72;;;;;;;10.85;74.58;99028.97;5044606;28;20036;-69
2022/04/07 01:12:11;;;;;;;20.75;3.58;;;;;;;10.93;74.58;98996.81;5045251;28;20566;-69
2022/04/07 01:14:59;;;;;;;19.20;4.32;;;;;;;10.93;75.21;98977.56;5045395;28;20476;-67
2022/04/07 01:17:24;;;;;;;18.90;3.85;;;;;;;10.77;76.86;98960.09;5044549;28;20031;-67
2022/04/07 01:19:49;;;;;;;15.32;3.63;;;;;;;10.67;78.13;98966.91;5044411;28;20036;-65
2022/04/07 01:22:15;;;;;;;25.40;3.83;;;;;;;10.60;78.43;98956.75;5044133;28;20495;-71
2022/04/07 01:24:40;;;;;;;22.77;4.50;;;;;;;10.44;78.62;98956.88;5041833;28;22383;-69
2022/04/07 01:27:06;;;;;;;24.88;5.43;;;;;;;10.48;78.44;98963.66;5045437;28;20128;-69
2022/04/07 01:29:31;;;;;;;21.30;4.47;;;;;;;10.48;78.08;98942.59;5044472;28;20057;-68
2022/04/07 01:31:59;;;;;;;30.80;4.97;;;;;;;10.52;78.10;98930.09;5043406;28;20041;-67
2022/04/07 01:34:24;;;;;;;24.70;4.05;;;;;;;10.57;78.16;98930.63;5043577;28;20107;-65
2022/04/07 01:36:51;;;;;;;22.67;4.90;;;;;;;10.47;77.60;98919.84;5043801;28;20116;-67
2022/04/07 01:39:21;;;;;;;23.85;4.15;;;;;;;10.58;77.16;98942.88;5043609;28;20032;-66
2022/04/07 01:41:47;;;;;;;21.65;4.63;;;;;;;10.73;77.13;98903.28;5044771;28;20070;-66
2022/04/07 01:44:13;;;;;;;31.70;5.28;;;;;;;10.56;77.16;98909.66;5044321;28;20033;-65
2022/04/07 01:46:38;;;;;;;24.80;3.83;;;;;;;10.62;76.22;98896.09;5043511;28;20021;-63
2022/04/07 01:49:04;;;;;;;33.35;4.60;;;;;;;10.65;76.63;98880.09;5043084;28;20028;-67
2022/04/07 01:51:30;;;;;;;25.83;4.03;;;;;;;10.65;76.89;98874.81;5043623;28;20029;-66
2022/04/07 01:53:56;;;;;;;24.02;4.80;;;;;;;10.54;77.67;98888.69;5045038;28;20057;-66
2022/04/07 01:56:22;;;;;;;32.20;4.65;;;;;;;10.46;78.60;98891.84;5037355;28;20061;-68
2022/04/07 01:58:48;;;;;;;32.72;5.43;;;;;;;10.41;78.87;98877.25;5025637;28;20074;-66
2022/04/07 02:01:15;;;;;;;19.98;4.15;;;;;;;10.53;79.16;98862.47;5026748;28;20018;-66
2022/04/07 02:03:40;;;;;;;33.70;4.72;;;;;;;10.45;79.30;98868.19;5028085;28;20036;-66
2022/04/07 02:06:18;;;;;;;28.92;5.43;;;;;;;10.22;79.07;98866.13;5027479;28;20010;-65
2022/04/07 02:08:44;;;;;;;25.42;3.80;;;;;;;10.40;78.36;98862.38;5027813;28;20028;-66
2022/04/07 02:11:13;;;;;;;29.52;3.97;;;;;;;10.39;77.98;98879.97;5026462;28;20383;-66
2022/04/07 02:13:39;;;;;;;26.05;4.05;;;;;;;10.33;77.83;98857.50;5011419;28;20040;-65
2022/04/07 02:16:09;;;;;;;27.52;4.43;;;;;;;10.56;77.53;98862.25;5028152;28;20361;-65
2022/04/07 02:18:35;;;;;;;29.45;4.57;;;;;;;10.48;76.74;98860.97;5028375;28;20046;-64
2022/04/07 02:21:00;;;;;;;27.35;3.92;;;;;;;10.54;76.68;98843.91;5027213;28;20029;-66
2022/04/07 02:23:27;;;;;;;26.05;4.53;;;;;;;10.52;75.65;98882.69;5027360;28;20245;-65
2022/04/07 02:25:52;;;;;;;32.95;4.60;;;;;;;10.62;75.02;98864.47;5027990;28;20160;-66
2022/04/07 02:28:18;;;;;;;27.55;4.93;;;;;;;10.68;75.39;98831.63;5028197;28;20469;-66
2022/04/07 02:30:44;;;;;;;31.30;4.95;;;;;;;10.58;74.54;98852.47;5034994;28;20118;-66
2022/04/07 02:33:09;;;;;;;23.98;4.18;;;;;;;10.78;74.63;98845.88;5047498;28;20029;-64
2022/04/07 02:35:34;;;;;;;31.33;4.43;;;;;;;10.63;74.38;98828.47;5045835;28;20033;-72
2022/04/07 02:38:00;;;;;;;28.98;5.22;;;;;;;10.79;74.25;98834.41;5034284;28;20033;-69
2022/04/07 02:40:26;;;;;;;32.60;5.20;;;;;;;10.79;73.99;98815.09;5027716;28;20071;-70
2022/04/07 02:42:51;;;;;;;27.58;4.28;;;;;;;10.70;73.83;98811.28;5028238;28;20464;-72
2022/04/07 02:45:16;;;;;;;26.20;4.78;;;;;;;10.81;73.84;98792.97;5028020;28;20480;-70
2022/04/07 02:47:42;;;;;;;39.25;5.03;;;;;;;10.93;73.39;98815.00;5028170;28;20030;-68
2022/04/07 02:50:08;;;;;;;34.58;4.93;;;;;;;10.76;74.40;98788.97;5027646;28;20025;-65
2022/04/07 02:52:33;;;;;;;27.13;5.07;;;;;;;10.76;74.39;98775.78;5030924;28;20516;-70
2022/04/07 02:54:59;;;;;;;31.83;5.13;;;;;;;10.82;75.00;98778.00;5025856;28;20031;-75
2022/04/07 02:57:25;;;;;;;22.77;4.43;;;;;;;10.83;74.45;98766.50;5026395;28;20025;-72
2022/04/07 02:59:51;;;;;;;33.15;4.50;;;;;;;10.80;74.72;98764.94;5026490;28;20049;-71
2022/04/07 03:02:17;;;;;;;31.90;5.20;;;;;;;10.79;74.70;98781.72;5027633;28;20037;-70
2022/04/07 03:04:42;;;;;;;28.85;4.30;;;;;;;10.74;75.14;98752.19;5027591;28;20018;-71
2022/04/07 03:07:07;;;;;;;27.38;4.25;;;;;;;10.59;75.19;98752.28;5027303;28;20024;-66
2022/04/07 03:09:33;;;;;;;24.42;4.13;;;;;;;10.77;75.29;98741.44;5027195;28;20079;-71
2022/04/07 03:11:58;;;;;;;26.80;4.40;;;;;;;10.74;75.13;98726.69;5047277;28;20028;-71
2022/04/07 03:14:27;;;;;;;27.63;4.45;;;;;;;10.83;75.15;98725.22;5046339;28;20433;-74
2022/04/07 03:16:53;;;;;;;34.20;5.65;;;;;;;10.73;75.29;98721.53;5047119;28;20017;-69
2022/04/07 03:19:18;;;;;;;24.10;5.22;;;;;;;10.69;75.25;98743.78;5046530;28;20045;-72
2022/04/07 03:21:44;;;;;;;29.65;4.38;;;;;;;10.47;76.10;98714.47;5047209;28;20021;-69
2022/04/07 03:24:10;;;;;;;25.42;4.78;;;;;;;10.56;75.85;98704.25;5046420;28;20052;-72
2022/04/07 03:26:35;;;;;;;34.97;5.15;;;;;;;10.65;75.61;98694.91;5046495;28;20127;-72
2022/04/07 03:29:00;;;;;;;29.38;4.35;;;;;;;10.44;76.59;98671.66;5040788;28;20141;-71
2022/04/07 03:31:26;;;;;;;27.58;5.13;;;;;;;10.44;76.54;98676.91;5028766;28;20284;-69
2022/04/07 03:33:51;;;;;;;29.80;4.95;;;;;;;10.52;76.72;98674.66;5027423;28;20086;-70
2022/04/07 03:36:17;;;;;;;27.40;3.83;;;;;;;10.49;77.48;98683.63;5027071;28;20022;-72
2022/04/07 03:38:43;;;;;;;32.95;6.88;;;;;;;10.34;78.48;98674.09;5026913;28;20036;-69
2022/04/07 03:41:08;;;;;;;31.10;4.15;;;;;;;10.19;79.09;98660.16;5026953;28;20030;-73
2022/04/07 03:43:34;;;;;;;24.45;3.90;;;;;;;10.22;79.39;98638.91;5027080;28;20035;-75
2022/04/07 03:45:59;;;;;;;26.75;4.63;;;;;;;10.18;79.86;98640.06;5027107;28;20117;-72
2022/04/07 03:48:24;;;;;;;24.83;4.05;;;;;;;10.16;80.12;98628.78;5026972;28;20033;-71
2022/04/07 03:50:50;;;;;;;21.55;3.65;;;;;;;10.03;80.49;98608.59;5025477;28;20028;-71
2022/04/07 03:53:15;;;;;;;32.40;4.05;;;;;;;10.15;80.00;98599.03;5025592;28;20034;-68
2022/04/07 03:55:41;;;;;;;27.08;4.82;;;;;;;10.09;80.44;98588.91;5026285;28;20479;-73
2022/04/07 03:58:06;;;;;;;22.63;3.70;;;;;;;10.04;80.03;98583.97;5027308;28;20519;-64
2022/04/07 04:00:33;;;;;;;27.70;3.85;;;;;;;10.11;79.67;98566.81;5026359;28;20100;-68
2022/04/07 04:02:58;;;;;;;24.52;4.18;;;;;;;10.15;78.91;98556.06;5043159;28;20067;-69
2022/04/07 04:05:23;;;;;;;30.00;5.32;;;;;;;10.10;78.99;98554.59;5045491;28;20111;-69
2022/04/07 04:07:49;;;;;;;20.80;4.68;;;;;;;10.14;78.59;98551.75;5045414;28;20075;-70
2022/04/07 04:10:14;;;;;;;24.25;3.88;;;;;;;10.11;78.86;98532.59;5044957;28;20532;-71
2022/04/07 04:12:39;;;;;;;35.25;4.57;;;;;;;10.21;77.78;98516.16;5044350;28;20491;-72
2022/04/07 04:15:05;;;;;;;16.42;3.50;;;;;;;10.27;78.06;98522.78;5045881;28;20103;-74
2022/04/07 04:17:31;;;;;;;22.08;4.05;;;;;;;10.24;78.32;98508.88;5045247;28;20041;-72
2022/04/07 04:19:57;;;;;;;16.92;3.47;;;;;;;10.21;78.17;98508.28;5045790;28;20025;-71
2022/04/07 04:22:22;;;;;;;16.80;2.58;;;;;;;10.18;77.80;98483.00;5044602;28;20105;-73
2022/04/07 04:24:48;;;;;;;13.23;2.45;;;;;;;10.19;77.64;98494.38;5044441;28;20029;-71
2022/04/07 04:27:14;;;;;;;26.60;4.75;;;;;;;10.27;77.99;98484.16;5045377;28;20029;-73
2022/04/07 04:29:40;;;;;;;22.13;3.30;;;;;;;10.15;78.41;98479.75;5044642;28;20040;-73
2022/04/07 04:32:06;;;;;;;15.30;3.40;;;;;;;10.13;78.47;98469.34;5045554;28;20066;-68
2022/04/07 04:34:31;;;;;;;17.60;3.35;;;;;;;10.08;78.73;98448.59;5026226;28;20037;-72
2022/04/07 04:36:56;;;;;;;16.60;2.97;;;;;;;10.01;78.86;98468.41;5025682;28;20087;-72
2022/04/07 04:39:22;;;;;;;15.13;2.90;;;;;;;10.01;78.91;98460.50;5023831;28;20037;-71
2022/04/07 04:41:47;;;;;;;13.25;2.58;;;;;;;9.94;79.55;98448.75;5025620;28;20029;-69
2022/04/07 04:44:12;;;;;;;16.15;3.00;;;;;;;9.83;80.33;98460.00;5029606;28;20492;-70
2022/04/07 04:46:38;;;;;;;13.18;2.47;;;;;;;9.88;79.76;98441.25;5025435;28;20033;-70
2022/04/07 04:49:03;;;;;;;15.48;2.53;;;;;;;9.80;80.16;98447.91;5025728;28;20029;-69
2022/04/07 04:51:28;;;;;;;14.95;2.67;;;;;;;9.78;80.44;98427.94;5023850;28;20384;-72
2022/04/07 04:53:54;;;;;;;12.45;2.58;;;;;;;9.82;80.80;98413.59;5023579;28;20058;-70
2022/04/07 04:56:20;;;;;;;12.65;2.30;;;;;;;9.70;81.11;98423.19;5025142;28;20020;-72
2022/04/07 04:58:45;;;;;;;12.15;2.22;;;;;;;9.61;81.67;98396.56;5039153;28;20029;-71
2022/04/07 05:01:11;;;;;;;16.58;2.65;;;;;;;9.68;81.74;98404.03;5035734;28;20083;-69
2022/04/07 05:03:36;;;;;;;13.27;2.20;;;;;;;9.71;81.72;98380.16;5024987;28;20022;-65
2022/04/07 05:06:02;;;;;;;12.93;2.40;;;;;;;9.75;81.45;98386.88;5025298;28;20013;-69
2022/04/07 05:08:28;;;;;;;12.68;2.90;;;;;;;9.60;82.05;98379.13;5025354;28;20025;-69
2022/04/07 05:10:53;;;;;;;8.27;1.83;;;;;;;9.71;81.80;98361.75;5023954;28;20024;-66
2022/04/07 05:13:21;;;;;;;14.70;2.92;;;;;;;9.60;82.60;98367.75;5025268;28;20384;-69
2022/04/07 05:15:47;;;;;;;10.00;2.10;;;;;;;9.70;81.92;98381.13;5025577;28;20022;-68
2022/04/07 05:18:12;;;;;;;11.82;2.10;;;;;;;9.66;82.22;98409.41;5024687;28;20052;-65
2022/04/07 05:20:37;;;;;;;9.43;1.77;;;;;;;9.67;82.11;98355.88;5025051;28;20103;-66
2022/04/07 05:23:03;;;;;;;12.20;1.90;;;;;;;9.65;81.87;98389.31;5025600;28;20025;-65
2022/04/07 05:25:28;;;;;;;9.70;2.05;;;;;;;9.66;81.88;98414.66;5023616;28;20033;-64
2022/04/07 05:27:53;;;;;;;8.50;2.10;;;;;;;9.58;82.37;98419.63;5025294;28;20029;-63
2022/04/07 05:30:19;;;;;;;13.73;2.20;;;;;;;9.64;82.46;98465.69;5025092;28;20025;-62
2022/04/07 05:32:45;;;;;;;6.22;1.55;;;;;;;9.45;80.81;98545.81;5025292;28;20101;-63
2022/04/07 05:35:12;;;;;;;9.90;1.25;;;;;;;8.31;74.38;98563.41;5027040;28;20113;-61
2022/04/07 05:37:37;;;;;;;5.50;1.00;;;;;;;7.39;76.21;98560.88;5029764;28;20112;-63
2022/04/07 05:40:03;;;;;;;6.28;1.13;;;;;;;6.56;78.83;98539.22;5028608;28;20124;-65
2022/04/07 05:42:29;;;;;;;3.88;1.00;;;;;;;6.30;79.60;98523.19;5028385;28;20032;-66
2022/04/07 05:44:54;;;;;;;5.05;0.88;;;;;;;6.21;80.85;98511.44;5028104;28;20078;-64
2022/04/07 05:47:19;;;;;;;8.00;1.08;;;;;;;6.17;81.15;98516.00;5028528;28;20033;-64
2022/04/07 05:49:45;;;;;;;6.88;1.20;;;;;;;6.03;82.30;98513.22;5029104;28;20476;-66
2022/04/07 05:52:10;;;;;;;7.35;1.40;;;;;;;5.94;83.67;98535.47;5037943;28;20504;-67
2022/04/07 05:54:36;;;;;;;6.63;1.13;;;;;;;6.10;83.96;98525.09;5047485;28;20023;-66
2022/04/07 05:57:01;;;;;;;10.40;2.45;;;;;;;6.10;84.27;98506.78;5048741;28;20433;-69
2022/04/07 05:59:26;;;;;;;7.53;1.70;;;;;;;6.11;84.46;98494.56;5037110;28;20045;-65
2022/04/07 06:01:52;;;;;;;8.65;1.48;;;;;;;6.16;84.46;98508.22;5028223;28;20029;-64
2022/04/07 06:04:17;;;;;;;10.82;2.30;;;;;;;6.15;84.62;98503.94;5027054;28;20652;-65
2022/04/07 06:06:43;;;;;;;7.80;1.50;;;;;;;6.26;84.30;98509.41;5027651;28;20472;-64
2022/04/07 06:09:08;;;;;;;18.92;1.95;;;;;;;6.37;84.19;98503.63;5025610;28;20511;-65
2022/04/07 06:11:34;;;;;;;19.98;2.67;;;;;;;6.39;84.34;98503.53;5028812;28;20029;-65
2022/04/07 06:14:00;;;;;;;18.00;2.35;;;;;;;6.38;84.08;98499.25;5027964;28;20116;-66
2022/04/07 06:16:25;;;;;;;16.95;1.95;;;;;;;6.53;83.53;98500.19;5026412;28;20041;-66
2022/04/07 06:18:54;;;;;;;14.10;1.98;;;;;;;6.50;84.03;98485.47;5028112;28;20582;-70
2022/04/07 06:21:19;;;;;;;17.00;1.80;;;;;;;6.59;83.63;98488.53;5027818;28;20083;-66
2022/04/07 06:23:45;;;;;;;6.47;1.52;;;;;;;6.61;82.23;98466.56;5027717;28;20104;-66
2022/04/07 06:26:11;;;;;;;3.53;1.33;;;;;;;6.56;82.06;98445.88;5028032;28;20025;-64
2022/04/07 06:28:36;;;;;;;9.32;1.70;;;;;;;6.53;82.24;98432.97;5029296;28;20075;-64
2022/04/07 06:31:02;;;;;;;11.98;1.70;;;;;;;6.66;82.37;98437.53;5028603;28;20033;-66
2022/04/07 06:33:27;;;;;;;9.65;2.05;;;;;;;6.79;82.46;98438.53;5029963;28;20044;-65
2022/04/07 06:35:52;;;;;;;7.75;1.70;;;;;;;6.74;83.03;98440.53;5047696;28;20025;-66
2022/04/07 06:38:18;;;;;;;9.02;1.55;;;;;;;6.87;83.13;98437.25;5044492;28;20040;-64
2022/04/07 06:40:44;;;;;;;11.07;1.50;;;;;;;6.94;83.00;98430.72;5047049;28;20452;-66
2022/04/07 06:43:10;;;;;;;15.43;1.63;;;;;;;6.94;82.80;98435.94;5047605;28;20032;-64
2022/04/07 06:45:35;;;;;;;18.40;2.95;;;;;;;6.90;82.93;98421.34;5048202;28;20049;-66
2022/04/07 06:48:01;;;;;;;6.75;1.20;;;;;;;6.90;82.90;98421.34;5047183;28;20025;-67
2022/04/07 06:50:26;;;;;;;16.38;1.63;;;;;;;7.00;82.69;98419.03;5047729;28;20441;-69
2022/04/07 06:52:52;;;;;;;9.45;1.60;;;;;;;6.91;82.81;98416.03;5038572;28;20036;-64
2022/04/07 06:55:18;;;;;;;12.95;1.48;;;;;;;7.04;82.66;98410.91;5025886;28;20056;-62
2022/04/07 06:57:50;;;;;;;14.38;1.92;;;;;;;6.87;82.55;98395.34;5024699;28;20041;-61
2022/04/07 07:00:17;;;;;;;15.88;2.28;;;;;;;6.92;82.09;98385.44;5031302;28;20056;-63
2022/04/07 07:02:44;;;;;;;5.43;1.17;;;;;;;6.99;81.74;98391.19;5028124;28;20682;-63
2022/04/07 07:05:10;;;;;;;6.68;1.40;;;;;;;7.01;81.68;98384.09;5027170;28;20170;-62
2022/04/07 07:07:35;;;;;;;8.63;1.50;;;;;;;7.16;81.45;98367.44;5028469;28;20112;-63
2022/04/07 07:10:00;;;;;;;8.05;1.40;;;;;;;7.19;81.25;98362.03;5024649;28;20026;-66
2022/04/07 07:12:26;;;;;;;3.67;1.25;;;;;;;7.17;81.35;98363.88;5026693;28;20403;-64
2022/04/07 07:14:52;;;;;;;12.75;1.52;;;;;;;7.29;81.25;98361.50;5036684;28;20391;-61
2022/04/07 07:17:17;;;;;;;8.40;1.67;;;;;;;7.20;81.52;98355.03;5044405;28;20017;-62
2022/04/07 07:19:42;;;;;;;9.93;1.50;;;;;;;7.43;81.04;98324.81;5046608;28;20093;-62
2022/04/07 07:22:08;;;;;;;13.13;1.65;;;;;;;7.49;81.21;98313.09;5045628;28;20021;-63
2022/04/07 07:24:33;;;;;;;9.68;1.45;;;;;;;7.52;81.41;98291.09;5046235;28;20029;-64
2022/04/07 07:26:58;;;;;;;9.13;1.17;;;;;;;7.40;81.74;98279.59;5046713;28;20036;-62
2022/04/07 07:29:24;;;;;;;9.05;1.30;;;;;;;7.50;81.94;98291.22;5041980;28;20029;-62
2022/04/07 07:31:49;;;;;;;11.10;1.67;;;;;;;7.64;81.74;98292.09;5045870;28;20044;-61
2022/04/07 07:34:14;;;;;;;10.85;1.63;;;;;;;7.90;81.00;98289.63;5043870;28;20040;-62
2022/04/07 07:36:40;;;;;;;8.18;1.85;;;;;;;7.83;80.72;98276.91;5046227;28;20445;-62
2022/04/07 07:39:05;;;;;;;8.38;1.50;;;;;;;7.81;80.25;98267.47;5046024;28;20032;-64
2022/04/07 07:41:30;;;;;;;8.25;1.95;;;;;;;8.18;80.08;98267.72;5045762;28;20070;-62
2022/04/07 07:43:56;;;;;;;6.60;1.60;;;;;;;8.13;79.62;98274.19;5044234;28;20033;-61
2022/04/07 07:46:21;;;;;;;5.95;1.13;;;;;;;8.06;79.95;98266.72;5044937;28;20503;-63
2022/04/07 07:48:46;;;;;;;6.78;1.70;;;;;;;8.10;79.74;98275.25;5038331;28;20086;-62
2022/04/07 07:51:12;;;;;;;8.88;1.30;;;;;;;8.04;79.94;98268.59;5045307;28;20406;-62
2022/04/07 07:53:37;;;;;;;7.47;1.38;;;;;;;8.17;79.41;98283.53;5036670;28;20029;-61
2022/04/07 07:56:03;;;;;;;4.75;1.30;;;;;;;8.07;80.14;98281.50;5042445;28;20029;-62
2022/04/07 07:58:28;;;;;;;4.68;1.27;;;;;;;8.19;79.38;98284.31;5042909;28;20041;-63
2022/04/07 08:00:55;;;;;;;5.18;1.27;;;;;;;8.15;79.27;98283.66;5031267;28;20480;-62
2022/04/07 08:03:21;;;;;;;5.82;1.55;;;;;;;8.09;78.94;98268.28;5045218;28;20479;-62
2022/04/07 08:05:46;;;;;;;12.07;1.83;;;;;;;8.30;78.96;98263.44;5044221;28;20023;-61
2022/04/07 08:08:12;;;;;;;5.88;1.20;;;;;;;8.48;78.69;98271.03;5045452;28;20028;-60
2022/04/07 08:10:37;;;;;;;6.15;1.25;;;;;;;8.61;78.32;98272.88;5044518;28;20029;-61
2022/04/07 08:13:02;;;;;;;22.02;1.60;;;;;;;8.83;78.53;98293.28;5044556;28;20021;-61
2022/04/07 08:15:28;;;;;;;9.23;1.70;;;;;;;8.76;77.79;98284.13;5044551;28;20051;-59
2022/04/07 08:17:53;;;;;;;4.20;1.10;;;;;;;8.92;77.31;98273.41;5045256;28;20044;-62
2022/04/07 08:20:19;;;;;;;3.90;1.48;;;;;;;9.18;76.09;98282.13;5034975;28;20037;-60
2022/04/07 08:22:44;;;;;;;10.70;1.38;;;;;;;9.32;76.60;98285.56;5025752;28;20025;-62
2022/04/07 08:25:10;;;;;;;10.15;1.70;;;;;;;9.64;75.08;98271.13;5023936;28;20049;-61
2022/04/07 08:27:35;;;;;;;6.43;1.45;;;;;;;9.95;74.75;98290.78;5026141;28;20033;-64
2022/04/07 08:30:02;;;;;;;6.65;1.42;;;;;;;10.04;73.78;98276.13;5037932;28;20076;-60
2022/04/07 08:32:27;;;;;;;12.80;1.63;;;;;;;9.93;73.50;98271.63;5045158;28;20510;-62
2022/04/07 08:34:52;;;;;;;11.02;1.40;;;;;;;10.18;73.63;98269.84;5043189;28;20052;-62
2022/04/07 08:37:18;;;;;;;11.10;2.28;;;;;;;10.20;73.06;98278.47;5045027;28;20025;-62
2022/04/07 08:39:44;;;;;;;10.50;1.38;;;;;;;10.39;71.75;98279.75;5044734;28;20037;-61
2022/04/07 08:42:09;;;;;;;6.80;1.25;;;;;;;10.38;72.36;98293.84;5045373;28;20071;-62
2022/04/07 08:44:34;;;;;;;10.77;2.05;;;;;;;10.49;70.79;98324.69;5045621;28;20135;-62
2022/04/07 08:47:00;;;;;;;8.50;1.83;;;;;;;10.51;71.07;98293.81;5045357;28;20052;-61
2022/04/07 08:49:31;;;;;;;11.00;2.47;;;;;;;10.46;70.70;98298.59;5027631;28;20041;-61
2022/04/07 08:51:57;;;;;;;13.38;1.77;;;;;;;10.51;69.14;98299.09;5024934;28;20048;-61
2022/04/07 08:54:22;;;;;;;15.38;2.03;;;;;;;10.52;69.45;98299.91;5023281;28;20029;-62
2022/04/07 08:56:48;;;;;;;7.32;1.50;;;;;;;10.80;68.23;98319.75;5025020;28;20032;-62
2022/04/07 08:59:14;;;;;;;13.52;2.17;;;;;;;10.95;69.22;98303.72;5028682;28;20378;-60
2022/04/07 09:01:39;;;;;;;9.35;1.63;;;;;;;10.98;67.39;98333.34;5043449;28;20037;-61
2022/04/07 09:04:05;;;;;;;13.45;2.20;;;;;;;10.70;63.87;98338.06;5044506;28;20021;-62
2022/04/07 09:06:34;;;;;;;17.05;2.00;;;;;;;10.88;65.43;98327.09;5044010;28;20032;-60
2022/04/07 09:09:21;;;;;;;11.95;2.05;;;;;;;10.74;62.85;98312.31;5044129;28;20029;-61
2022/04/07 09:11:46;;;;;;;9.55;2.33;;;;;;;10.87;63.23;98314.88;5044725;28;20494;-61
2022/04/07 09:14:12;;;;;;;12.52;2.15;;;;;;;11.07;63.97;98317.75;5044877;28;20115;-61
2022/04/07 09:16:39;;;;;;;14.07;3.00;;;;;;;11.19;64.09;98342.34;5044127;28;20108;-60
2022/04/07 09:19:05;;;;;;;12.23;1.60;;;;;;;11.33;63.39;98323.69;5043697;28;20045;-62
2022/04/07 09:21:34;;;;;;;11.52;1.70;;;;;;;11.23;62.98;98326.16;5045137;28;20488;-62
2022/04/07 09:24:00;;;;;;;13.82;2.45;;;;;;;11.01;62.04;98329.63;5042764;28;20387;-62
2022/04/07 09:26:27;;;;;;;12.05;2.08;;;;;;;10.95;62.84;98322.16;5043962;28;20039;-60
2022/04/07 09:28:56;;;;;;;9.18;2.20;;;;;;;11.00;63.54;98338.50;5043903;28;20072;-62
2022/04/07 09:31:22;;;;;;;;;;;;;;;10.99;63.14;98328.91;5044543;28;20029;-61
2022/04/07 09:33:55;;;;;;;16.52;2.72;;;;;;;10.87;63.71;98341.22;5043525;28;20295;-60
2022/04/07 09:36:21;;;;;;;11.60;2.30;;;;;;;10.67;62.28;98345.34;5042390;28;20182;-62
2022/04/07 09:38:52;;;;;;;12.10;1.77;;;;;;;10.47;62.54;98381.88;5042977;28;20051;-60
2022/04/07 09:41:20;;;;;;;10.80;2.10;;;;;;;10.59;62.96;98336.22;5042357;28;20033;-59
2022/04/07 09:43:49;;;;;;;19.85;2.08;;;;;;;10.81;62.73;98347.75;5043335;28;20124;-62
2022/04/07 09:46:19;;;;;;;10.13;2.30;;;;;;;10.67;62.88;98345.34;5044302;28;20128;-61
2022/04/07 09:49:10;;;;;;;17.58;2.38;;;;;;;10.84;62.25;98360.72;5041237;28;20021;-65
2022/04/07 09:51:46;;;;;;;18.75;2.53;;;;;;;10.94;63.10;98363.50;5042280;28;20053;-64
2022/04/07 09:54:16;;;;;;;16.75;2.88;;;;;;;10.73;62.41;98365.94;5041831;28;20017;-63
2022/04/07 09:56:48;;;;;;;10.63;2.45;;;;;;;10.74;63.08;98367.63;5040353;28;20029;-61
2022/04/07 09:59:16;;;;;;;10.70;1.98;;;;;;;10.85;63.90;98386.13;5036621;28;20052;-61
2022/04/07 10:01:43;;;;;;;17.20;3.03;;;;;;;10.76;63.18;98370.13;5033112;28;20064;-63
2022/04/07 10:04:09;;;;;;;16.67;2.90;;;;;;;10.52;62.51;98369.22;5022687;28;20573;-65
2022/04/07 10:06:35;;;;;;;19.17;3.45;;;;;;;10.60;62.92;98360.75;5040086;28;20036;-61
2022/04/07 10:09:03;;;;;;;18.60;3.70;;;;;;;10.86;63.08;98364.06;5042009;28;20018;-61
2022/04/07 10:11:31;;;;;;;21.02;3.22;;;;;;;10.64;62.97;98403.50;5041967;28;20021;-64
2022/04/07 10:13:57;;;;;;;11.52;2.55;;;;;;;10.68;61.16;98412.84;5042671;28;20620;-64
2022/04/07 10:16:22;;;;;;;17.27;2.85;;;;;;;10.60;61.68;98414.25;5043677;28;20025;-62
2022/04/07 10:19:19;;;;;;;20.40;3.33;;;;;;;10.78;62.05;98398.06;5042633;28;20127;-62
2022/04/07 10:22:05;;;;;;;12.07;2.50;;;;;;;10.67;61.86;98377.78;5042624;28;20053;-62
2022/04/07 10:24:35;;;;;;;22.38;3.15;;;;;;;10.74;61.86;98379.00;5027758;28;20055;-62
2022/04/07 10:27:02;;;;;;;22.98;2.90;;;;;;;10.65;61.14;98392.03;5047123;28;20032;-59
2022/04/07 10:29:29;;;;;;;18.67;3.03;;;;;;;10.68;60.45;98381.25;5038055;28;20132;-59
2022/04/07 10:32:12;;;;;;;15.55;2.65;;;;;;;10.74;60.37;98394.81;5026088;28;20017;-60
2022/04/07 10:34:53;;;;;;;16.52;3.35;;;;;;;11.29;60.84;98377.56;5025518;28;20087;-61
2022/04/07 10:37:40;;;;;;;15.88;3.55;;;;;;;11.36;59.77;98405.19;5024054;28;20100;-61
2022/04/07 10:40:33;;;;;;;19.98;3.53;;;;;;;11.42;59.64;98392.47;5026371;28;20496;-60
2022/04/07 10:43:14;;;;;;;14.88;3.00;;;;;;;11.11;59.33;98387.75;5026252;28;20052;-55
2022/04/07 10:46:02;;;;;;;17.38;3.03;;;;;;;11.07;59.30;98395.03;5026182;28;20541;-59
2022/04/07 10:48:29;;;;;;;20.02;2.92;;;;;;;11.23;60.80;98385.97;5026148;28;20104;-58
2022/04/07 10:50:59;;;;;;;21.85;3.33;;;;;;;11.28;59.06;98401.41;5026780;28;20022;-58
2022/04/07 10:53:30;;;;;;;22.02;4.25;;;;;;;11.46;59.79;98413.22;5024906;28;20033;-59
2022/04/07 10:56:02;;;;;;;27.73;4.43;;;;;;;11.52;59.71;98403.13;5038268;28;20021;-59
2022/04/07 10:58:52;;;;;;;15.10;2.83;;;;;;;11.57;57.99;98422.09;5044798;28;20110;-56
2022/04/07 11:01:29;;;;;;;;;;;;;;;11.52;59.15;98437.41;5035145;28;20128;-57
2022/04/07 11:04:16;;;;;;;21.88;3.72;;;;;;;11.60;58.01;98401.63;5026646;28;20306;-57
2022/04/07 11:07:11;;;;;;;19.52;2.90;;;;;;;11.67;57.36;98475.81;5040085;28;20029;-58
2022/04/07 11:09:58;;;;;;;21.55;3.80;;;;;;;11.62;57.97;98423.41;5045822;28;20056;-57
2022/04/07 11:12:31;;;;;;;17.10;3.50;;;;;;;11.66;57.51;98434.56;5045892;28;20106;-58
2022/04/07 11:15:02;;;;;;;14.85;2.88;;;;;;;11.95;57.06;98412.97;5044959;28;20052;-56
2022/04/07 11:17:44;;;;;;;16.55;2.97;;;;;;;11.83;57.01;98475.47;5046063;28;20025;-56
2022/04/07 11:20:22;;;;;;;16.42;3.42;;;;;;;11.65;57.63;98424.16;5036170;28;20475;-59
2022/04/07 11:22:52;;;;;;;14.88;2.50;;;;;;;11.53;56.87;98410.94;5044232;28;20037;-61
2022/04/07 11:25:24;;;;;;;17.67;2.80;;;;;;;11.73;57.74;98427.88;5043660;28;20360;-62
2022/04/07 11:28:02;;;;;;;15.80;3.25;;;;;;;11.99;57.62;98474.28;5045919;28;20041;-61
2022/04/07 11:30:38;;;;;;;24.85;3.85;;;;;;;12.06;56.55;98404.22;5044756;28;20048;-64